sensor_id;sensor_type;location;lat;lon;timestamp;pressure;altitude;pressure_sealevel;temperature
19666;BMP180;9980;51.020;7.772;2023-06-22T00:01:21;97795.00;;;23.60
19666;BMP180;9980;51.020;7.772;2023-06-22T00:03:49;97793.00;;;23.60
19666;BMP180;9980;51.020;7.772;2023-06-22T00:06:17;97804.00;;;23.60
19666;BMP180;9980;51.020;7.772;2023-06-22T00:08:44;97801.00;;;23.60
19666;BMP180;9980;51.020;7.772;2023-06-22T00:11:11;97799.00;;;23.50
19666;BMP180;9980;51.020;7.772;2023-06-22T00:13:39;97801.00;;;23.50
19666;BMP180;9980;51.020;7.772;2023-06-22T00:16:06;97802.00;;;23.50
19666;BMP180;9980;51.020;7.772;2023-06-22T00:18:33;97791.00;;;23.50
19666;BMP180;9980;51.020;7.772;2023-06-22T00:21:00;97799.00;;;23.50
19666;BMP180;9980;51.020;7.772;2023-06-22T00:23:27;97793.00;;;23.50
19666;BMP180;9980;51.020;7.772;2023-06-22T00:25:54;97797.00;;;23.50
19666;BMP180;9980;51.020;7.772;2023-06-22T00:28:21;97798.00;;;23.50
19666;BMP180;9980;51.020;7.772;2023-06-22T00:30:51;97803.00;;;23.50
19666;BMP180;9980;51.020;7.772;2023-06-22T00:33:18;97790.00;;;23.50
19666;BMP180;9980;51.020;7.772;2023-06-22T00:35:45;97784.00;;;23.50
19666;BMP180;9980;51.020;7.772;2023-06-22T00:38:13;97800.00;;;23.50
19666;BMP180;9980;51.020;7.772;2023-06-22T00:40:41;97808.00;;;23.50
19666;BMP180;9980;51.020;7.772;2023-06-22T00:43:08;97783.00;;;23.50
19666;BMP180;9980;51.020;7.772;2023-06-22T00:45:35;97796.00;;;23.50
19666;BMP180;9980;51.020;7.772;2023-06-22T00:48:03;97796.00;;;23.50
19666;BMP180;9980;51.020;7.772;2023-06-22T00:50:32;97796.00;;;23.50
19666;BMP180;9980;51.020;7.772;2023-06-22T00:53:06;97809.00;;;23.40
19666;BMP180;9980;51.020;7.772;2023-06-22T00:55:38;97797.00;;;23.50
19666;BMP180;9980;51.020;7.772;2023-06-22T00:58:11;97796.00;;;23.50
19666;BMP180;9980;51.020;7.772;2023-06-22T01:00:39;97812.00;;;23.50
19666;BMP180;9980;51.020;7.772;2023-06-22T01:03:07;97808.00;;;23.50
19666;BMP180;9980;51.020;7.772;2023-06-22T01:05:38;97802.00;;;23.50
19666;BMP180;9980;51.020;7.772;2023-06-22T01:13:49;97813.00;;;23.40
19666;BMP180;9980;51.020;7.772;2023-06-22T01:16:23;97805.00;;;23.40
19666;BMP180;9980;51.020;7.772;2023-06-22T01:18:55;97817.00;;;23.40
19666;BMP180;9980;51.020;7.772;2023-06-22T01:21:28;97803.00;;;23.40
19666;BMP180;9980;51.020;7.772;2023-06-22T01:24:22;97797.00;;;23.40
19666;BMP180;9980;51.020;7.772;2023-06-22T01:29:40;97790.00;;;23.40
19666;BMP180;9980;51.020;7.772;2023-06-22T01:32:10;97787.00;;;23.50
19666;BMP180;9980;51.020;7.772;2023-06-22T01:34:39;97787.00;;;23.40
19666;BMP180;9980;51.020;7.772;2023-06-22T01:37:08;97779.00;;;23.50
19666;BMP180;9980;51.020;7.772;2023-06-22T01:39:35;97777.00;;;23.50
19666;BMP180;9980;51.020;7.772;2023-06-22T01:42:03;97772.00;;;23.50
19666;BMP180;9980;51.020;7.772;2023-06-22T01:44:33;97770.00;;;23.50
19666;BMP180;9980;51.020;7.772;2023-06-22T01:47:01;97777.00;;;23.50
19666;BMP180;9980;51.020;7.772;2023-06-22T01:49:28;97782.00;;;23.50
19666;BMP180;9980;51.020;7.772;2023-06-22T01:51:57;97767.00;;;23.50
19666;BMP180;9980;51.020;7.772;2023-06-22T01:54:24;97775.00;;;23.50
19666;BMP180;9980;51.020;7.772;2023-06-22T01:56:51;97778.00;;;23.50
19666;BMP180;9980;51.020;7.772;2023-06-22T02:02:10;97773.00;;;23.40
19666;BMP180;9980;51.020;7.772;2023-06-22T02:04:55;97774.00;;;23.40
19666;BMP180;9980;51.020;7.772;2023-06-22T02:07:49;97780.00;;;23.50
19666;BMP180;9980;51.020;7.772;2023-06-22T02:10:17;97773.00;;;23.50
19666;BMP180;9980;51.020;7.772;2023-06-22T02:12:48;97777.00;;;23.50
19666;BMP180;9980;51.020;7.772;2023-06-22T02:15:16;97769.00;;;23.50
19666;BMP180;9980;51.020;7.772;2023-06-22T02:17:47;97758.00;;;23.50
19666;BMP180;9980;51.020;7.772;2023-06-22T02:20:15;97769.00;;;23.50
19666;BMP180;9980;51.020;7.772;2023-06-22T02:22:42;97783.00;;;23.50
19666;BMP180;9980;51.020;7.772;2023-06-22T02:25:10;97762.00;;;23.50
19666;BMP180;9980;51.020;7.772;2023-06-22T02:27:37;97775.00;;;23.50
19666;BMP180;9980;51.020;7.772;2023-06-22T02:30:10;97766.00;;;23.40
19666;BMP180;9980;51.020;7.772;2023-06-22T02:32:38;97766.00;;;23.50
19666;BMP180;9980;51.020;7.772;2023-06-22T02:35:09;97756.00;;;23.50
19666;BMP180;9980;51.020;7.772;2023-06-22T02:37:38;97752.00;;;23.50
19666;BMP180;9980;51.020;7.772;2023-06-22T02:40:09;97756.00;;;23.40
19666;BMP180;9980;51.020;7.772;2023-06-22T02:42:37;97762.00;;;23.50
19666;BMP180;9980;51.020;7.772;2023-06-22T02:45:05;97753.00;;;23.50
19666;BMP180;9980;51.020;7.772;2023-06-22T02:47:32;97762.00;;;23.50
19666;BMP180;9980;51.020;7.772;2023-06-22T02:49:59;97750.00;;;23.50
19666;BMP180;9980;51.020;7.772;2023-06-22T02:52:28;97756.00;;;23.50
19666;BMP180;9980;51.020;7.772;2023-06-22T02:54:55;97750.00;;;23.50
19666;BMP180;9980;51.020;7.772;2023-06-22T02:57:22;97755.00;;;23.50
19666;BMP180;9980;51.020;7.772;2023-06-22T02:59:49;97734.00;;;23.50
19666;BMP180;9980;51.020;7.772;2023-06-22T03:02:16;97738.00;;;23.50
19666;BMP180;9980;51.020;7.772;2023-06-22T03:04:43;97745.00;;;23.50
19666;BMP180;9980;51.020;7.772;2023-06-22T03:07:10;97737.00;;;23.50
19666;BMP180;9980;51.020;7.772;2023-06-22T03:09:37;97726.00;;;23.50
19666;BMP180;9980;51.020;7.772;2023-06-22T03:12:04;97731.00;;;23.50
19666;BMP180;9980;51.020;7.772;2023-06-22T03:14:42;97735.00;;;23.50
19666;BMP180;9980;51.020;7.772;2023-06-22T03:17:09;97718.00;;;23.50
19666;BMP180;9980;51.020;7.772;2023-06-22T03:19:38;97730.00;;;23.50
19666;BMP180;9980;51.020;7.772;2023-06-22T03:22:05;97728.00;;;23.50
19666;BMP180;9980;51.020;7.772;2023-06-22T03:24:31;97736.00;;;23.50
19666;BMP180;9980;51.020;7.772;2023-06-22T03:26:59;97730.00;;;23.50
19666;BMP180;9980;51.020;7.772;2023-06-22T03:29:26;97736.00;;;23.50
19666;BMP180;9980;51.020;7.772;2023-06-22T03:31:57;97742.00;;;23.60
19666;BMP180;9980;51.020;7.772;2023-06-22T03:34:24;97732.00;;;23.60
19666;BMP180;9980;51.020;7.772;2023-06-22T03:36:53;97735.00;;;23.60
19666;BMP180;9980;51.020;7.772;2023-06-22T03:39:20;97737.00;;;23.60
19666;BMP180;9980;51.020;7.772;2023-06-22T03:41:47;97749.00;;;23.60
19666;BMP180;9980;51.020;7.772;2023-06-22T03:44:14;97749.00;;;23.60
19666;BMP180;9980;51.020;7.772;2023-06-22T03:46:42;97736.00;;;23.60
19666;BMP180;9980;51.020;7.772;2023-06-22T03:49:09;97746.00;;;23.60
19666;BMP180;9980;51.020;7.772;2023-06-22T03:51:36;97752.00;;;23.60
19666;BMP180;9980;51.020;7.772;2023-06-22T03:54:03;97743.00;;;23.60
19666;BMP180;9980;51.020;7.772;2023-06-22T03:56:30;97752.00;;;23.60
19666;BMP180;9980;51.020;7.772;2023-06-22T03:58:57;97760.00;;;23.60
19666;BMP180;9980;51.020;7.772;2023-06-22T04:01:24;97744.00;;;23.60
19666;BMP180;9980;51.020;7.772;2023-06-22T04:03:51;97750.00;;;23.60
19666;BMP180;9980;51.020;7.772;2023-06-22T04:06:18;97751.00;;;23.60
19666;BMP180;9980;51.020;7.772;2023-06-22T04:08:46;97746.00;;;23.50
19666;BMP180;9980;51.020;7.772;2023-06-22T04:11:18;97750.00;;;23.50
19666;BMP180;9980;51.020;7.772;2023-06-22T04:13:45;97747.00;;;23.50
19666;BMP180;9980;51.020;7.772;2023-06-22T04:16:12;97746.00;;;23.50
19666;BMP180;9980;51.020;7.772;2023-06-22T04:18:39;97729.00;;;23.50
19666;BMP180;9980;51.020;7.772;2023-06-22T04:21:05;97725.00;;;23.50
19666;BMP180;9980;51.020;7.772;2023-06-22T04:23:32;97735.00;;;23.50
19666;BMP180;9980;51.020;7.772;2023-06-22T04:25:59;97747.00;;;23.60
19666;BMP180;9980;51.020;7.772;2023-06-22T04:28:27;97736.00;;;23.60
19666;BMP180;9980;51.020;7.772;2023-06-22T04:30:54;97757.00;;;23.60
19666;BMP180;9980;51.020;7.772;2023-06-22T04:33:25;97749.00;;;23.60
19666;BMP180;9980;51.020;7.772;2023-06-22T04:35:52;97744.00;;;23.60
19666;BMP180;9980;51.020;7.772;2023-06-22T04:38:19;97748.00;;;23.60
19666;BMP180;9980;51.020;7.772;2023-06-22T04:40:48;97739.00;;;23.60
19666;BMP180;9980;51.020;7.772;2023-06-22T04:43:15;97748.00;;;23.60
19666;BMP180;9980;51.020;7.772;2023-06-22T04:45:42;97738.00;;;23.60
19666;BMP180;9980;51.020;7.772;2023-06-22T04:48:09;97724.00;;;23.60
19666;BMP180;9980;51.020;7.772;2023-06-22T04:50:37;97740.00;;;23.60
19666;BMP180;9980;51.020;7.772;2023-06-22T04:53:05;97724.00;;;23.60
19666;BMP180;9980;51.020;7.772;2023-06-22T04:55:32;97733.00;;;23.60
19666;BMP180;9980;51.020;7.772;2023-06-22T04:57:59;97741.00;;;23.60
19666;BMP180;9980;51.020;7.772;2023-06-22T05:00:31;97731.00;;;23.60
19666;BMP180;9980;51.020;7.772;2023-06-22T05:02:58;97742.00;;;23.60
19666;BMP180;9980;51.020;7.772;2023-06-22T05:05:44;97730.00;;;23.60
19666;BMP180;9980;51.020;7.772;2023-06-22T05:08:13;97730.00;;;23.70
19666;BMP180;9980;51.020;7.772;2023-06-22T05:10:40;97737.00;;;23.70
19666;BMP180;9980;51.020;7.772;2023-06-22T05:13:25;97730.00;;;23.70
19666;BMP180;9980;51.020;7.772;2023-06-22T05:15:53;97732.00;;;23.70
19666;BMP180;9980;51.020;7.772;2023-06-22T05:18:30;97717.00;;;23.70
19666;BMP180;9980;51.020;7.772;2023-06-22T05:20:58;97712.00;;;23.70
19666;BMP180;9980;51.020;7.772;2023-06-22T05:23:26;97704.00;;;23.70
19666;BMP180;9980;51.020;7.772;2023-06-22T05:25:53;97701.00;;;23.80
19666;BMP180;9980;51.020;7.772;2023-06-22T05:28:21;97690.00;;;23.80
19666;BMP180;9980;51.020;7.772;2023-06-22T05:30:50;97707.00;;;23.80
19666;BMP180;9980;51.020;7.772;2023-06-22T05:33:17;97712.00;;;23.80
19666;BMP180;9980;51.020;7.772;2023-06-22T05:35:44;97719.00;;;23.80
19666;BMP180;9980;51.020;7.772;2023-06-22T05:38:11;97708.00;;;23.90
19666;BMP180;9980;51.020;7.772;2023-06-22T05:40:38;97725.00;;;23.90
19666;BMP180;9980;51.020;7.772;2023-06-22T05:43:05;97717.00;;;23.90
19666;BMP180;9980;51.020;7.772;2023-06-22T05:45:32;97712.00;;;24.00
19666;BMP180;9980;51.020;7.772;2023-06-22T05:47:59;97713.00;;;24.00
19666;BMP180;9980;51.020;7.772;2023-06-22T05:50:28;97716.00;;;24.10
19666;BMP180;9980;51.020;7.772;2023-06-22T05:52:55;97709.00;;;24.10
19666;BMP180;9980;51.020;7.772;2023-06-22T05:55:22;97712.00;;;24.10
19666;BMP180;9980;51.020;7.772;2023-06-22T05:57:49;97709.00;;;24.20
19666;BMP180;9980;51.020;7.772;2023-06-22T06:00:16;97698.00;;;24.20
19666;BMP180;9980;51.020;7.772;2023-06-22T06:02:43;97700.00;;;24.30
19666;BMP180;9980;51.020;7.772;2023-06-22T06:05:14;97694.00;;;24.40
19666;BMP180;9980;51.020;7.772;2023-06-22T06:07:42;97713.00;;;24.50
19666;BMP180;9980;51.020;7.772;2023-06-22T06:10:10;97719.00;;;24.50
19666;BMP180;9980;51.020;7.772;2023-06-22T06:12:36;97702.00;;;24.60
19666;BMP180;9980;51.020;7.772;2023-06-22T06:15:04;97700.00;;;24.70
19666;BMP180;9980;51.020;7.772;2023-06-22T06:17:32;97719.00;;;24.70
19666;BMP180;9980;51.020;7.772;2023-06-22T06:20:00;97712.00;;;24.80
19666;BMP180;9980;51.020;7.772;2023-06-22T06:22:27;97714.00;;;24.80
19666;BMP180;9980;51.020;7.772;2023-06-22T06:24:54;97719.00;;;24.90
19666;BMP180;9980;51.020;7.772;2023-06-22T06:27:22;97711.00;;;25.00
19666;BMP180;9980;51.020;7.772;2023-06-22T06:29:56;97714.00;;;25.00
19666;BMP180;9980;51.020;7.772;2023-06-22T06:32:23;97701.00;;;25.10
19666;BMP180;9980;51.020;7.772;2023-06-22T06:34:50;97715.00;;;25.20
19666;BMP180;9980;51.020;7.772;2023-06-22T06:37:17;97699.00;;;25.30
19666;BMP180;9980;51.020;7.772;2023-06-22T06:39:45;97702.00;;;25.40
19666;BMP180;9980;51.020;7.772;2023-06-22T06:42:12;97695.00;;;25.50
19666;BMP180;9980;51.020;7.772;2023-06-22T06:44:39;97684.00;;;25.60
19666;BMP180;9980;51.020;7.772;2023-06-22T06:47:06;97688.00;;;25.70
19666;BMP180;9980;51.020;7.772;2023-06-22T06:49:34;97682.00;;;25.70
19666;BMP180;9980;51.020;7.772;2023-06-22T06:52:00;97690.00;;;25.80
19666;BMP180;9980;51.020;7.772;2023-06-22T06:54:27;97691.00;;;25.90
19666;BMP180;9980;51.020;7.772;2023-06-22T06:56:54;97690.00;;;26.00
19666;BMP180;9980;51.020;7.772;2023-06-22T06:59:21;97696.00;;;26.00
19666;BMP180;9980;51.020;7.772;2023-06-22T07:01:48;97690.00;;;26.20
19666;BMP180;9980;51.020;7.772;2023-06-22T07:04:15;97699.00;;;26.20
19666;BMP180;9980;51.020;7.772;2023-06-22T07:06:42;97705.00;;;26.30
19666;BMP180;9980;51.020;7.772;2023-06-22T07:09:09;97707.00;;;26.40
19666;BMP180;9980;51.020;7.772;2023-06-22T07:11:36;97709.00;;;26.50
19666;BMP180;9980;51.020;7.772;2023-06-22T07:14:03;97687.00;;;26.60
19666;BMP180;9980;51.020;7.772;2023-06-22T07:16:30;97685.00;;;26.70
19666;BMP180;9980;51.020;7.772;2023-06-22T07:18:58;97678.00;;;26.80
19666;BMP180;9980;51.020;7.772;2023-06-22T07:21:25;97684.00;;;26.80
19666;BMP180;9980;51.020;7.772;2023-06-22T07:23:52;97681.00;;;26.90
19666;BMP180;9980;51.020;7.772;2023-06-22T07:26:19;97663.00;;;27.00
19666;BMP180;9980;51.020;7.772;2023-06-22T07:28:46;97654.00;;;27.00
19666;BMP180;9980;51.020;7.772;2023-06-22T07:31:13;97657.00;;;27.10
19666;BMP180;9980;51.020;7.772;2023-06-22T07:33:40;97658.00;;;27.20
19666;BMP180;9980;51.020;7.772;2023-06-22T07:36:07;97655.00;;;27.20
19666;BMP180;9980;51.020;7.772;2023-06-22T07:38:35;97652.00;;;27.30
19666;BMP180;9980;51.020;7.772;2023-06-22T07:41:02;97661.00;;;27.40
19666;BMP180;9980;51.020;7.772;2023-06-22T07:43:32;97664.00;;;27.50
19666;BMP180;9980;51.020;7.772;2023-06-22T07:46:01;97674.00;;;27.50
19666;BMP180;9980;51.020;7.772;2023-06-22T07:48:28;97668.00;;;27.60
19666;BMP180;9980;51.020;7.772;2023-06-22T07:50:55;97674.00;;;27.70
19666;BMP180;9980;51.020;7.772;2023-06-22T07:53:22;97668.00;;;27.70
19666;BMP180;9980;51.020;7.772;2023-06-22T07:55:50;97662.00;;;27.80
19666;BMP180;9980;51.020;7.772;2023-06-22T07:58:17;97651.00;;;27.90
19666;BMP180;9980;51.020;7.772;2023-06-22T08:00:46;97656.00;;;27.90
19666;BMP180;9980;51.020;7.772;2023-06-22T08:03:13;97653.00;;;27.90
19666;BMP180;9980;51.020;7.772;2023-06-22T08:05:40;97666.00;;;28.00
19666;BMP180;9980;51.020;7.772;2023-06-22T08:08:07;97642.00;;;28.00
19666;BMP180;9980;51.020;7.772;2023-06-22T08:10:34;97653.00;;;28.10
19666;BMP180;9980;51.020;7.772;2023-06-22T08:13:01;97648.00;;;28.20
19666;BMP180;9980;51.020;7.772;2023-06-22T08:15:28;97631.00;;;28.20
19666;BMP180;9980;51.020;7.772;2023-06-22T08:17:55;97643.00;;;28.30
19666;BMP180;9980;51.020;7.772;2023-06-22T08:20:24;97633.00;;;28.40
19666;BMP180;9980;51.020;7.772;2023-06-22T08:22:54;97637.00;;;28.50
19666;BMP180;9980;51.020;7.772;2023-06-22T08:25:21;97637.00;;;28.60
19666;BMP180;9980;51.020;7.772;2023-06-22T08:27:48;97632.00;;;28.70
19666;BMP180;9980;51.020;7.772;2023-06-22T08:30:16;97646.00;;;28.80
19666;BMP180;9980;51.020;7.772;2023-06-22T08:32:45;97644.00;;;28.90
19666;BMP180;9980;51.020;7.772;2023-06-22T08:35:12;97637.00;;;29.00
19666;BMP180;9980;51.020;7.772;2023-06-22T08:37:39;97617.00;;;29.00
19666;BMP180;9980;51.020;7.772;2023-06-22T08:40:08;97621.00;;;29.10
19666;BMP180;9980;51.020;7.772;2023-06-22T08:42:37;97616.00;;;29.10
19666;BMP180;9980;51.020;7.772;2023-06-22T08:45:05;97608.00;;;29.20
19666;BMP180;9980;51.020;7.772;2023-06-22T08:47:32;97605.00;;;29.20
19666;BMP180;9980;51.020;7.772;2023-06-22T08:49:59;97602.00;;;29.20
19666;BMP180;9980;51.020;7.772;2023-06-22T08:52:29;97614.00;;;29.30
19666;BMP180;9980;51.020;7.772;2023-06-22T08:54:56;97604.00;;;29.30
19666;BMP180;9980;51.020;7.772;2023-06-22T08:57:24;97604.00;;;29.40
19666;BMP180;9980;51.020;7.772;2023-06-22T08:59:52;97600.00;;;29.40
19666;BMP180;9980;51.020;7.772;2023-06-22T09:02:20;97600.00;;;29.50
19666;BMP180;9980;51.020;7.772;2023-06-22T09:04:47;97605.00;;;29.50
19666;BMP180;9980;51.020;7.772;2023-06-22T09:07:14;97599.00;;;29.60
19666;BMP180;9980;51.020;7.772;2023-06-22T09:09:41;97595.00;;;29.70
19666;BMP180;9980;51.020;7.772;2023-06-22T09:12:08;97586.00;;;29.70
19666;BMP180;9980;51.020;7.772;2023-06-22T09:14:36;97581.00;;;29.80
19666;BMP180;9980;51.020;7.772;2023-06-22T09:17:03;97589.00;;;29.90
19666;BMP180;9980;51.020;7.772;2023-06-22T09:19:30;97580.00;;;29.90
19666;BMP180;9980;51.020;7.772;2023-06-22T09:21:57;97581.00;;;30.00
19666;BMP180;9980;51.020;7.772;2023-06-22T09:24:24;97583.00;;;30.10
19666;BMP180;9980;51.020;7.772;2023-06-22T09:26:51;97580.00;;;30.20
19666;BMP180;9980;51.020;7.772;2023-06-22T09:29:17;97566.00;;;30.20
19666;BMP180;9980;51.020;7.772;2023-06-22T09:31:44;97567.00;;;30.30
19666;BMP180;9980;51.020;7.772;2023-06-22T09:34:11;97546.00;;;30.40
19666;BMP180;9980;51.020;7.772;2023-06-22T09:36:38;97561.00;;;30.50
19666;BMP180;9980;51.020;7.772;2023-06-22T09:39:07;97543.00;;;30.60
19666;BMP180;9980;51.020;7.772;2023-06-22T09:41:34;97555.00;;;30.70
19666;BMP180;9980;51.020;7.772;2023-06-22T09:44:01;97524.00;;;30.70
19666;BMP180;9980;51.020;7.772;2023-06-22T09:46:28;97536.00;;;30.80
19666;BMP180;9980;51.020;7.772;2023-06-22T09:48:55;97522.00;;;30.90
19666;BMP180;9980;51.020;7.772;2023-06-22T09:51:23;97527.00;;;30.90
19666;BMP180;9980;51.020;7.772;2023-06-22T09:53:51;97524.00;;;30.90
19666;BMP180;9980;51.020;7.772;2023-06-22T09:56:20;97510.00;;;31.00
19666;BMP180;9980;51.020;7.772;2023-06-22T09:58:47;97503.00;;;31.10
19666;BMP180;9980;51.020;7.772;2023-06-22T10:01:14;97500.00;;;31.10
19666;BMP180;9980;51.020;7.772;2023-06-22T10:03:41;97487.00;;;31.20
19666;BMP180;9980;51.020;7.772;2023-06-22T10:06:08;97483.00;;;31.20
19666;BMP180;9980;51.020;7.772;2023-06-22T10:08:36;97490.00;;;31.30
19666;BMP180;9980;51.020;7.772;2023-06-22T10:11:03;97489.00;;;31.30
19666;BMP180;9980;51.020;7.772;2023-06-22T10:13:30;97479.00;;;31.40
19666;BMP180;9980;51.020;7.772;2023-06-22T10:15:57;97479.00;;;31.50
19666;BMP180;9980;51.020;7.772;2023-06-22T10:18:24;97480.00;;;31.50
19666;BMP180;9980;51.020;7.772;2023-06-22T10:20:52;97484.00;;;31.50
19666;BMP180;9980;51.020;7.772;2023-06-22T10:23:22;97470.00;;;31.50
19666;BMP180;9980;51.020;7.772;2023-06-22T10:25:49;97477.00;;;31.60
19666;BMP180;9980;51.020;7.772;2023-06-22T10:28:16;97465.00;;;31.50
19666;BMP180;9980;51.020;7.772;2023-06-22T10:30:43;97472.00;;;31.50
19666;BMP180;9980;51.020;7.772;2023-06-22T10:33:12;97476.00;;;31.50
19666;BMP180;9980;51.020;7.772;2023-06-22T10:35:39;97468.00;;;31.50
19666;BMP180;9980;51.020;7.772;2023-06-22T10:38:06;97477.00;;;31.40
19666;BMP180;9980;51.020;7.772;2023-06-22T10:40:34;97474.00;;;31.30
19666;BMP180;9980;51.020;7.772;2023-06-22T10:43:01;97478.00;;;31.30
19666;BMP180;9980;51.020;7.772;2023-06-22T10:45:28;97476.00;;;31.30
19666;BMP180;9980;51.020;7.772;2023-06-22T10:47:56;97479.00;;;31.20
19666;BMP180;9980;51.020;7.772;2023-06-22T10:50:25;97488.00;;;31.20
19666;BMP180;9980;51.020;7.772;2023-06-22T10:52:52;97485.00;;;31.10
19666;BMP180;9980;51.020;7.772;2023-06-22T10:55:19;97495.00;;;31.10
19666;BMP180;9980;51.020;7.772;2023-06-22T10:57:46;97486.00;;;31.10
19666;BMP180;9980;51.020;7.772;2023-06-22T11:00:15;97471.00;;;31.00
19666;BMP180;9980;51.020;7.772;2023-06-22T11:02:43;97469.00;;;30.90
19666;BMP180;9980;51.020;7.772;2023-06-22T11:05:11;97512.00;;;30.90
19666;BMP180;9980;51.020;7.772;2023-06-22T11:07:42;97534.00;;;30.80
19666;BMP180;9980;51.020;7.772;2023-06-22T11:10:15;97552.00;;;30.80
19666;BMP180;9980;51.020;7.772;2023-06-22T11:12:42;97561.00;;;30.70
19666;BMP180;9980;51.020;7.772;2023-06-22T11:15:09;97566.00;;;30.70
19666;BMP180;9980;51.020;7.772;2023-06-22T11:17:36;97560.00;;;30.60
19666;BMP180;9980;51.020;7.772;2023-06-22T11:20:04;97539.00;;;30.60
19666;BMP180;9980;51.020;7.772;2023-06-22T11:22:39;97532.00;;;30.50
19666;BMP180;9980;51.020;7.772;2023-06-22T11:25:08;97543.00;;;30.50
19666;BMP180;9980;51.020;7.772;2023-06-22T11:27:35;97537.00;;;30.40
19666;BMP180;9980;51.020;7.772;2023-06-22T11:30:02;97535.00;;;30.40
19666;BMP180;9980;51.020;7.772;2023-06-22T11:32:29;97546.00;;;30.30
19666;BMP180;9980;51.020;7.772;2023-06-22T11:34:57;97524.00;;;30.30
19666;BMP180;9980;51.020;7.772;2023-06-22T11:37:24;97521.00;;;30.20
19666;BMP180;9980;51.020;7.772;2023-06-22T11:39:51;97518.00;;;30.10
19666;BMP180;9980;51.020;7.772;2023-06-22T11:42:25;97525.00;;;30.10
19666;BMP180;9980;51.020;7.772;2023-06-22T11:44:52;97500.00;;;30.00
19666;BMP180;9980;51.020;7.772;2023-06-22T11:47:19;97520.00;;;30.00
19666;BMP180;9980;51.020;7.772;2023-06-22T11:49:46;97515.00;;;29.90
19666;BMP180;9980;51.020;7.772;2023-06-22T11:52:13;97515.00;;;29.80
19666;BMP180;9980;51.020;7.772;2023-06-22T11:54:40;97521.00;;;29.80
19666;BMP180;9980;51.020;7.772;2023-06-22T11:57:06;97536.00;;;29.70
19666;BMP180;9980;51.020;7.772;2023-06-22T11:59:33;97512.00;;;29.60
19666;BMP180;9980;51.020;7.772;2023-06-22T12:02:00;97454.00;;;29.50
19666;BMP180;9980;51.020;7.772;2023-06-22T12:04:27;97474.00;;;29.40
19666;BMP180;9980;51.020;7.772;2023-06-22T12:06:54;97492.00;;;29.30
19666;BMP180;9980;51.020;7.772;2023-06-22T12:09:21;97522.00;;;29.30
19666;BMP180;9980;51.020;7.772;2023-06-22T12:11:48;97520.00;;;29.20
19666;BMP180;9980;51.020;7.772;2023-06-22T12:14:15;97517.00;;;29.10
19666;BMP180;9980;51.020;7.772;2023-06-22T12:16:42;97512.00;;;29.00
19666;BMP180;9980;51.020;7.772;2023-06-22T12:19:11;97495.00;;;28.90
19666;BMP180;9980;51.020;7.772;2023-06-22T12:21:38;97479.00;;;28.80
19666;BMP180;9980;51.020;7.772;2023-06-22T12:24:07;97460.00;;;28.70
19666;BMP180;9980;51.020;7.772;2023-06-22T12:26:34;97471.00;;;28.60
19666;BMP180;9980;51.020;7.772;2023-06-22T12:29:01;97466.00;;;28.60
19666;BMP180;9980;51.020;7.772;2023-06-22T12:31:28;97453.00;;;28.50
19666;BMP180;9980;51.020;7.772;2023-06-22T12:33:55;97425.00;;;28.50
19666;BMP180;9980;51.020;7.772;2023-06-22T12:36:22;97427.00;;;28.40
19666;BMP180;9980;51.020;7.772;2023-06-22T12:38:49;97422.00;;;28.40
19666;BMP180;9980;51.020;7.772;2023-06-22T12:41:16;97420.00;;;28.30
19666;BMP180;9980;51.020;7.772;2023-06-22T12:43:42;97416.00;;;28.30
19666;BMP180;9980;51.020;7.772;2023-06-22T12:46:09;97402.00;;;28.30
19666;BMP180;9980;51.020;7.772;2023-06-22T12:48:36;97395.00;;;28.30
19666;BMP180;9980;51.020;7.772;2023-06-22T12:51:09;97383.00;;;28.30
19666;BMP180;9980;51.020;7.772;2023-06-22T12:53:36;97376.00;;;28.30
19666;BMP180;9980;51.020;7.772;2023-06-22T12:56:03;97377.00;;;28.30
19666;BMP180;9980;51.020;7.772;2023-06-22T12:58:30;97365.00;;;28.40
19666;BMP180;9980;51.020;7.772;2023-06-22T13:00:57;97366.00;;;28.50
19666;BMP180;9980;51.020;7.772;2023-06-22T13:03:24;97362.00;;;28.50
19666;BMP180;9980;51.020;7.772;2023-06-22T13:05:54;97360.00;;;28.60
19666;BMP180;9980;51.020;7.772;2023-06-22T13:08:20;97349.00;;;28.70
19666;BMP180;9980;51.020;7.772;2023-06-22T13:10:47;97343.00;;;28.90
19666;BMP180;9980;51.020;7.772;2023-06-22T13:13:15;97337.00;;;29.00
19666;BMP180;9980;51.020;7.772;2023-06-22T13:15:42;97328.00;;;29.10
19666;BMP180;9980;51.020;7.772;2023-06-22T13:18:09;97335.00;;;29.30
19666;BMP180;9980;51.020;7.772;2023-06-22T13:20:36;97322.00;;;29.40
19666;BMP180;9980;51.020;7.772;2023-06-22T13:23:03;97331.00;;;29.50
19666;BMP180;9980;51.020;7.772;2023-06-22T13:25:29;97335.00;;;29.60
19666;BMP180;9980;51.020;7.772;2023-06-22T13:27:57;97336.00;;;29.70
19666;BMP180;9980;51.020;7.772;2023-06-22T13:30:24;97317.00;;;29.80
19666;BMP180;9980;51.020;7.772;2023-06-22T13:32:51;97320.00;;;29.90
19666;BMP180;9980;51.020;7.772;2023-06-22T13:35:18;97321.00;;;29.90
19666;BMP180;9980;51.020;7.772;2023-06-22T13:37:45;97336.00;;;30.00
19666;BMP180;9980;51.020;7.772;2023-06-22T13:40:12;97322.00;;;30.00
19666;BMP180;9980;51.020;7.772;2023-06-22T13:42:39;97304.00;;;30.00
19666;BMP180;9980;51.020;7.772;2023-06-22T13:45:07;97294.00;;;30.10
19666;BMP180;9980;51.020;7.772;2023-06-22T13:47:34;97279.00;;;30.20
19666;BMP180;9980;51.020;7.772;2023-06-22T13:50:01;97264.00;;;30.30
19666;BMP180;9980;51.020;7.772;2023-06-22T13:52:28;97264.00;;;30.40
19666;BMP180;9980;51.020;7.772;2023-06-22T13:54:55;97230.00;;;30.40
19666;BMP180;9980;51.020;7.772;2023-06-22T13:57:22;97219.00;;;30.50
19666;BMP180;9980;51.020;7.772;2023-06-22T13:59:49;97220.00;;;30.50
19666;BMP180;9980;51.020;7.772;2023-06-22T14:02:16;97224.00;;;30.60
19666;BMP180;9980;51.020;7.772;2023-06-22T14:04:43;97210.00;;;30.60
19666;BMP180;9980;51.020;7.772;2023-06-22T14:07:10;97208.00;;;30.70
19666;BMP180;9980;51.020;7.772;2023-06-22T14:09:39;97210.00;;;30.70
19666;BMP180;9980;51.020;7.772;2023-06-22T14:12:07;97203.00;;;30.70
19666;BMP180;9980;51.020;7.772;2023-06-22T14:14:34;97206.00;;;30.70
19666;BMP180;9980;51.020;7.772;2023-06-22T14:17:01;97195.00;;;30.70
19666;BMP180;9980;51.020;7.772;2023-06-22T14:19:28;97191.00;;;30.60
19666;BMP180;9980;51.020;7.772;2023-06-22T14:21:55;97173.00;;;30.70
19666;BMP180;9980;51.020;7.772;2023-06-22T14:24:23;97152.00;;;30.70
19666;BMP180;9980;51.020;7.772;2023-06-22T14:26:55;97170.00;;;30.60
19666;BMP180;9980;51.020;7.772;2023-06-22T14:29:22;97151.00;;;30.70
19666;BMP180;9980;51.020;7.772;2023-06-22T14:31:49;97172.00;;;30.70
19666;BMP180;9980;51.020;7.772;2023-06-22T14:34:16;97173.00;;;30.70
19666;BMP180;9980;51.020;7.772;2023-06-22T14:36:43;97174.00;;;30.60